Pagrindinis puslapis
METAR-TAF:

METAR-TAF

Oro uostai :

Rijadas, Saudo Arabija

platuma: 24-56N, ilguma: 046-43E, Aukštis: 614 m

Dabartinis oras

Ataskaita buvo paskelbta 52 minutes, ne 00:00 UTC
Vėjas 3 kt iš Pietryčių
Temperatūra 28°C
Drėgmė 27%
Slėgis 1008 hPa
Matomumas 10 km arba daugiau
nėra debesų žemiau 1500 m ir nėra kamuolinių lietaus debesų

METAR: OERK 240000Z 14003KT CAVOK 28/07 Q1008 NOSIG

Laikas: 03:52 (00:52 UTC)

Prognozė

Ataskaita buvo paskelbta 1 valandą ir 52 minutes, ne 23:00 UTC
Prognozė galioja nuo 24 metu 00 UTC su 25 metu 06 UTC
Vėjas 6 kt iš Pietryčių
Matomumas 10 km arba daugiau
nėra debesų žemiau 1500 m ir nėra kamuolinių lietaus debesų
Tapsmas
nuo 24 metu 08 UTC su 24 metu 10 UTC
Vėjas 12 kt iš Rytų/Šiaurės Rytų
Tapsmas
nuo 24 metu 18 UTC su 24 metu 20 UTC
Vėjas 3 kt nuo kintamojo kryptimis

TAF: OERK 232300Z 2400/2506 14006KT CAVOK BECMG 2408/2410 06012KT BECMG 2418/2420 VRB03KT

Orai ataskaitas ir orų prognozės (METAR, TAF).

turimą stotys yra geltonos ir raudonos taškus žemėlapyje.

Perkelti pele per norėdami pamatyti stoties vardą.

Tada spustelėkite, norėdami matyti oro stebėjimo ir prognozės.

Norėdami pakeisti žemėlapį: spustelėkite ant žalios mygtukų su juodo kryžiaus žemyn,; žalią mygtuką su brūkšneliu, jei norite nutolinti; arba žalių rodyklių gretimoms žemėlapius.


METAR-TAF: